createdAt,value
2022-12-31T00:01:18.311Z,99842.06
2022-12-31T00:03:46.180Z,99839.53
2022-12-31T00:06:35.529Z,99843.63
2022-12-31T00:09:06.606Z,99828.56
2022-12-31T00:11:36.597Z,99814.06
2022-12-31T00:14:04.043Z,99819.28
2022-12-31T00:16:38.732Z,99836.59
2022-12-31T00:19:08.660Z,99834.03
2022-12-31T00:21:36.648Z,99831.50
2022-12-31T00:24:05.813Z,99843.22
2022-12-31T00:26:34.745Z,99826.94
2022-12-31T00:29:02.724Z,99836.66
2022-12-31T00:31:36.313Z,99828.19
2022-12-31T00:34:04.431Z,99822.22
2022-12-31T00:36:34.928Z,99821.41
2022-12-31T00:39:04.668Z,99841.38
2022-12-31T00:41:32.062Z,99835.03
2022-12-31T00:43:59.279Z,99829.56
2022-12-31T00:46:26.558Z,99845.78
2022-12-31T00:48:54.203Z,99838.47
2022-12-31T00:51:29.148Z,99863.44
2022-12-31T00:53:56.753Z,99841.91
2022-12-31T00:56:28.290Z,99857.59
2022-12-31T00:58:55.552Z,99848.41
2022-12-31T01:01:29.468Z,99839.06
2022-12-31T01:04:05.964Z,99834.28
2022-12-31T01:06:32.915Z,99836.25
2022-12-31T01:09:00.020Z,99837.97
2022-12-31T01:11:29.431Z,99829.31
2022-12-31T01:14:15.960Z,99844.06
2022-12-31T01:16:46.452Z,99850.31
2022-12-31T01:19:29.161Z,99839.13
2022-12-31T01:21:57.556Z,99852.31
2022-12-31T01:24:25.029Z,99835.31
2022-12-31T01:26:52.111Z,99842.41
2022-12-31T01:29:19.536Z,99836.72
2022-12-31T01:31:46.528Z,99839.41
2022-12-31T01:34:13.471Z,99838.13
2022-12-31T01:36:40.636Z,99837.69
2022-12-31T01:39:08.974Z,99841.47
2022-12-31T01:41:44.478Z,99849.78
2022-12-31T01:44:11.287Z,99853.19
2022-12-31T01:46:42.149Z,99854.72
2022-12-31T01:49:37.337Z,99856.13
2022-12-31T01:52:15.845Z,99851.56
2022-12-31T01:54:51.373Z,99836.81
2022-12-31T01:57:18.872Z,99829.19
2022-12-31T01:59:45.876Z,99828.56
2022-12-31T02:02:14.560Z,99817.91
2022-12-31T02:04:41.957Z,99824.34
2022-12-31T02:07:10.520Z,99827.56
2022-12-31T02:09:41.105Z,99824.34
2022-12-31T02:12:09.954Z,99813.53
2022-12-31T02:14:44.658Z,99824.00
2022-12-31T02:17:32.871Z,99833.19
2022-12-31T02:20:18.881Z,99834.06
2022-12-31T02:22:57.800Z,99836.75
2022-12-31T02:25:52.034Z,99831.34
2022-12-31T02:29:16.798Z,99831.34
2022-12-31T02:32:14.015Z,99812.03
2022-12-31T02:35:10.992Z,99812.22
2022-12-31T02:37:42.138Z,99815.19
2022-12-31T02:40:14.931Z,99814.66
2022-12-31T02:42:42.506Z,99808.88
2022-12-31T02:45:14.206Z,99816.53
2022-12-31T02:48:12.725Z,99819.94
2022-12-31T02:50:58.113Z,99817.81
2022-12-31T02:53:36.059Z,99811.59
2022-12-31T02:56:22.613Z,99811.75
2022-12-31T02:59:25.410Z,99807.19
2022-12-31T03:02:14.312Z,99786.38
2022-12-31T03:04:46.339Z,99787.03
2022-12-31T03:07:18.911Z,99794.31
2022-12-31T03:09:45.802Z,99794.59
2022-12-31T03:12:32.524Z,99797.16
2022-12-31T03:15:00.489Z,99785.78
2022-12-31T03:17:27.780Z,99786.38
2022-12-31T03:20:27.305Z,99779.72
2022-12-31T03:22:54.215Z,99788.66
2022-12-31T03:25:33.710Z,99787.66
2022-12-31T03:28:03.281Z,99799.00
2022-12-31T03:30:31.781Z,99794.06
2022-12-31T03:32:59.527Z,99787.94
2022-12-31T03:35:29.577Z,99796.75
2022-12-31T03:37:56.784Z,99790.06
2022-12-31T03:40:26.507Z,99798.38
2022-12-31T03:42:53.740Z,99785.66
2022-12-31T03:45:21.289Z,99786.38
2022-12-31T03:47:48.881Z,99797.38
2022-12-31T03:50:18.633Z,99807.59
2022-12-31T03:52:46.633Z,99814.66
2022-12-31T03:55:14.491Z,99826.16
2022-12-31T03:57:41.514Z,99844.53
2022-12-31T04:00:13.296Z,99840.84
2022-12-31T04:02:41.181Z,99845.41
2022-12-31T04:05:10.337Z,99865.69
2022-12-31T04:07:37.708Z,99863.91
2022-12-31T04:10:07.275Z,99876.56
2022-12-31T04:12:34.349Z,99873.00
2022-12-31T04:15:01.788Z,99860.66
2022-12-31T04:17:28.804Z,99851.31
2022-12-31T04:19:55.705Z,99836.09
2022-12-31T04:22:22.629Z,99781.88
2022-12-31T04:24:49.709Z,99781.56
2022-12-31T04:27:16.768Z,99782.56
2022-12-31T04:29:43.899Z,99764.81
2022-12-31T04:32:10.854Z,99760.56
2022-12-31T04:34:37.874Z,99754.88
2022-12-31T04:37:04.779Z,99767.69
2022-12-31T04:39:31.875Z,99805.75
2022-12-31T04:41:59.277Z,99815.00
2022-12-31T04:44:26.219Z,99812.59
2022-12-31T04:46:53.219Z,99810.50
2022-12-31T04:49:21.151Z,99833.66
2022-12-31T04:51:48.095Z,99813.81
2022-12-31T04:54:15.246Z,99840.66
2022-12-31T04:56:42.157Z,99851.44
2022-12-31T04:59:10.317Z,99847.03
2022-12-31T05:01:38.583Z,99840.25
2022-12-31T05:04:07.048Z,99839.41
2022-12-31T05:06:34.351Z,99833.06
2022-12-31T05:09:01.651Z,99824.97
2022-12-31T05:11:28.709Z,99826.41
2022-12-31T05:13:55.646Z,99859.59
2022-12-31T05:16:22.685Z,99866.00
2022-12-31T05:18:49.631Z,99866.28
2022-12-31T05:21:21.194Z,99869.84
2022-12-31T05:23:48.679Z,99858.97
2022-12-31T05:26:16.901Z,99858.97
2022-12-31T05:28:44.471Z,99870.47
2022-12-31T05:31:11.459Z,99878.00
2022-12-31T05:33:38.410Z,99863.63
2022-12-31T05:36:05.817Z,99869.03
2022-12-31T05:38:32.901Z,99884.38
2022-12-31T05:41:10.299Z,99866.34
2022-12-31T05:43:37.221Z,99862.25
2022-12-31T05:46:05.155Z,99846.06
2022-12-31T05:48:32.666Z,99852.13
2022-12-31T05:50:59.669Z,99857.97
2022-12-31T05:53:26.584Z,99862.53
2022-12-31T05:55:53.479Z,99872.88
2022-12-31T05:58:20.415Z,99874.16
2022-12-31T06:00:47.475Z,99882.13
2022-12-31T06:03:14.508Z,99883.97
2022-12-31T06:05:43.259Z,99892.94
2022-12-31T06:08:11.993Z,99888.66
2022-12-31T06:10:40.280Z,99885.66
2022-12-31T06:13:07.301Z,99886.97
2022-12-31T06:15:40.389Z,99886.81
2022-12-31T06:18:07.748Z,99877.31
2022-12-31T06:20:37.911Z,99888.97
2022-12-31T06:23:05.597Z,99901.47
2022-12-31T06:25:34.727Z,99905.16
2022-12-31T06:28:01.695Z,99893.81
2022-12-31T06:30:28.677Z,99895.19
2022-12-31T06:32:55.887Z,99890.13
2022-12-31T06:35:23.223Z,99879.59
2022-12-31T06:37:51.834Z,99883.00
2022-12-31T06:40:18.777Z,99877.34
2022-12-31T06:42:45.984Z,99877.19
2022-12-31T06:45:12.900Z,99870.13
2022-12-31T06:47:39.894Z,99883.47
2022-12-31T06:50:07.711Z,99884.59
2022-12-31T06:52:34.703Z,99887.53
2022-12-31T06:55:02.045Z,99887.16
2022-12-31T06:57:29.644Z,99886.59
2022-12-31T06:59:57.149Z,99897.09
2022-12-31T07:02:58.367Z,99895.41
2022-12-31T07:05:34.126Z,99898.66
2022-12-31T07:08:46.393Z,99883.75
2022-12-31T07:11:29.503Z,99907.72
2022-12-31T07:14:37.742Z,99927.16
2022-12-31T07:17:35.659Z,99905.31
2022-12-31T07:20:11.019Z,99923.31
2022-12-31T07:22:38.473Z,99918.53
2022-12-31T07:25:09.468Z,99917.66
2022-12-31T07:28:37.387Z,99925.19
2022-12-31T07:31:22.081Z,99918.53
2022-12-31T07:34:11.477Z,99906.75
2022-12-31T07:37:15.788Z,99910.59
2022-12-31T07:40:22.556Z,99918.56
2022-12-31T07:43:23.669Z,99913.41
2022-12-31T07:46:06.900Z,99906.03
2022-12-31T07:48:34.456Z,99890.28
2022-12-31T07:51:01.636Z,99906.19
2022-12-31T07:53:29.243Z,99911.75
2022-12-31T07:56:02.268Z,99915.16
2022-12-31T07:59:02.516Z,99930.75
2022-12-31T08:01:46.084Z,99944.06
2022-12-31T08:04:46.901Z,99953.59
2022-12-31T08:07:41.395Z,99959.81
2022-12-31T08:10:57.811Z,99941.94
2022-12-31T08:13:25.432Z,99938.97
2022-12-31T08:15:52.837Z,99931.84
2022-12-31T08:18:20.067Z,99932.72
2022-12-31T08:21:04.716Z,99921.50
2022-12-31T08:23:45.407Z,99925.44
2022-12-31T08:26:31.395Z,99914.50
2022-12-31T08:29:41.633Z,99919.75
2022-12-31T08:32:52.865Z,99922.28
2022-12-31T08:35:58.351Z,99931.50
2022-12-31T08:38:57.558Z,99924.28
2022-12-31T08:41:43.675Z,99920.13
2022-12-31T08:44:51.525Z,99931.44
2022-12-31T08:48:12.370Z,99919.47
2022-12-31T08:50:39.602Z,99913.50
2022-12-31T08:53:07.158Z,99916.91
2022-12-31T08:55:34.475Z,99926.63
2022-12-31T08:58:42.452Z,99928.81
2022-12-31T09:01:11.146Z,99926.06
2022-12-31T09:04:18.212Z,99927.16
2022-12-31T09:07:00.697Z,99928.25
2022-12-31T09:09:43.501Z,99922.53
2022-12-31T09:12:50.466Z,99934.44
2022-12-31T09:15:21.614Z,99942.94
2022-12-31T09:17:50.952Z,99941.63
2022-12-31T09:20:43.810Z,99950.44
2022-12-31T09:23:13.375Z,99942.03
2022-12-31T09:26:35.159Z,99941.41
2022-12-31T09:29:39.652Z,99947.19
2022-12-31T09:32:21.830Z,99947.75
2022-12-31T09:35:15.753Z,99959.66
2022-12-31T09:37:51.683Z,99946.31
2022-12-31T09:40:42.972Z,99955.84
2022-12-31T09:43:41.955Z,99950.66
2022-12-31T09:46:33.252Z,99942.75
2022-12-31T09:49:46.155Z,99934.34
2022-12-31T09:52:20.576Z,99938.84
2022-12-31T09:55:28.029Z,99942.63
2022-12-31T09:58:50.242Z,99924.91
2022-12-31T10:01:58.406Z,99936.78
2022-12-31T10:05:22.089Z,99923.47
2022-12-31T10:08:38.224Z,99915.41
2022-12-31T10:11:29.523Z,99913.03
2022-12-31T10:14:26.111Z,99920.91
2022-12-31T10:17:14.072Z,99918.38
2022-12-31T10:20:16.271Z,99981.72
2022-12-31T10:23:10.443Z,99989.53
2022-12-31T10:26:25.241Z,99982.06
2022-12-31T10:29:27.281Z,99990.16
2022-12-31T10:32:26.285Z,100009.41
2022-12-31T10:35:34.777Z,100022.91
2022-12-31T10:38:27.836Z,100038.78
2022-12-31T10:41:06.608Z,100059.44
2022-12-31T10:43:47.357Z,100070.56
2022-12-31T10:46:46.246Z,100068.31
2022-12-31T10:49:37.962Z,100080.03
2022-12-31T10:52:58.892Z,100086.09
2022-12-31T10:55:43.029Z,100078.69
2022-12-31T10:58:40.345Z,100063.16
2022-12-31T11:01:33.783Z,100057.09
2022-12-31T11:04:20.895Z,100054.09
2022-12-31T11:07:26.964Z,100047.66
2022-12-31T11:10:37.446Z,100068.16
2022-12-31T11:13:31.021Z,100068.69
2022-12-31T11:16:31.011Z,100063.97
2022-12-31T11:19:42.573Z,100056.50
2022-12-31T11:22:32.449Z,100046.22
2022-12-31T11:25:07.636Z,100048.63
2022-12-31T11:28:00.142Z,100058.97
2022-12-31T11:31:04.213Z,100062.69
2022-12-31T11:33:44.151Z,100061.84
2022-12-31T11:36:39.664Z,100057.09
2022-12-31T11:40:15.674Z,100062.53
2022-12-31T11:43:10.735Z,100057.28
2022-12-31T11:46:02.955Z,100062.22
2022-12-31T11:49:19.796Z,100062.22
2022-12-31T11:52:36.060Z,100058.50
2022-12-31T11:55:19.475Z,100053.09
2022-12-31T11:57:50.728Z,100054.09
2022-12-31T12:00:28.175Z,100055.63
2022-12-31T12:03:05.131Z,100052.78
2022-12-31T12:05:36.813Z,100053.31
2022-12-31T12:08:03.902Z,100028.56
2022-12-31T12:10:42.046Z,100035.22
2022-12-31T12:13:22.561Z,100032.88
2022-12-31T12:20:21.087Z,100032.78
2022-12-31T12:22:56.142Z,100028.75
2022-12-31T12:25:27.356Z,100023.19
2022-12-31T12:27:54.427Z,100019.97
2022-12-31T12:30:28.905Z,100028.78
2022-12-31T12:33:01.514Z,100026.44
2022-12-31T12:35:33.007Z,100020.69
2022-12-31T12:38:15.180Z,100021.06
2022-12-31T12:40:55.759Z,99997.88
2022-12-31T12:43:30.145Z,100010.75
2022-12-31T12:46:04.075Z,100011.09
2022-12-31T12:48:44.785Z,100009.59
2022-12-31T12:52:08.145Z,100008.94
2022-12-31T12:54:55.322Z,100009.66
2022-12-31T12:57:35.146Z,99991.34
2022-12-31T13:00:31.551Z,100001.53
2022-12-31T13:03:32.711Z,100002.56
2022-12-31T13:06:34.153Z,100006.78
2022-12-31T13:09:44.372Z,99999.34
2022-12-31T13:13:04.869Z,100008.69
2022-12-31T13:15:44.281Z,100007.50
2022-12-31T13:18:43.594Z,100004.59
2022-12-31T13:21:37.522Z,100002.56
2022-12-31T13:24:42.901Z,100000.72
2022-12-31T13:27:39.195Z,100008.00
2022-12-31T13:30:31.368Z,100001.22
2022-12-31T13:33:20.285Z,100004.31
2022-12-31T13:36:05.905Z,99994.63
2022-12-31T13:38:53.710Z,100012.13
2022-12-31T13:41:47.094Z,100016.53
2022-12-31T13:44:19.475Z,100020.59
2022-12-31T13:47:14.297Z,100007.38
2022-12-31T13:49:55.921Z,100019.41
2022-12-31T13:52:41.684Z,100015.16
2022-12-31T13:55:18.299Z,100027.41
2022-12-31T13:58:31.713Z,100019.91
2022-12-31T14:01:33.874Z,100016.19
2022-12-31T14:04:23.087Z,100032.34
2022-12-31T14:06:58.208Z,100029.44
2022-12-31T14:09:34.676Z,100024.34
2022-12-31T14:12:20.637Z,100038.94
2022-12-31T14:15:24.028Z,100039.97
2022-12-31T14:18:17.319Z,100040.63
2022-12-31T14:20:54.535Z,100047.44
2022-12-31T14:23:48.488Z,100045.38
2022-12-31T14:26:27.527Z,100066.41
2022-12-31T14:29:29.198Z,100062.16
2022-12-31T14:32:30.173Z,100065.19
2022-12-31T14:35:30.767Z,100071.81
2022-12-31T14:38:38.861Z,100080.09
2022-12-31T14:41:19.506Z,100075.03
2022-12-31T14:44:13.751Z,100089.09
2022-12-31T14:47:36.154Z,100078.56
2022-12-31T14:50:17.665Z,100095.50
2022-12-31T14:53:25.785Z,100112.28
2022-12-31T14:56:27.180Z,100105.50
2022-12-31T14:59:03.207Z,100121.22
2022-12-31T15:01:30.293Z,100127.16
2022-12-31T15:03:58.386Z,100140.19
2022-12-31T15:06:45.323Z,100135.47
2022-12-31T15:09:38.714Z,100135.28
2022-12-31T15:13:05.314Z,100151.56
2022-12-31T15:16:26.141Z,100161.59
2022-12-31T15:19:42.234Z,100141.59
2022-12-31T16:43:36.393Z,100157.34
2022-12-31T16:46:15.055Z,100175.31
2022-12-31T16:48:53.475Z,100172.44
2022-12-31T16:51:23.899Z,100167.88
2022-12-31T16:53:51.633Z,100174.31
2022-12-31T16:56:32.848Z,100164.16
2022-12-31T16:59:07.993Z,100165.84
2022-12-31T17:05:28.213Z,100165.34
2022-12-31T17:07:55.302Z,100171.78
2022-12-31T17:10:27.647Z,100178.53
2022-12-31T17:13:28.021Z,100182.25
2022-12-31T17:15:45.554Z,100176.81
2022-12-31T17:18:20.548Z,100160.41
2022-12-31T17:20:49.269Z,100164.28
2022-12-31T17:23:26.110Z,100160.41
2022-12-31T17:26:12.711Z,100157.53
2022-12-31T17:28:49.374Z,100145.84
2022-12-31T17:31:40.275Z,100135.28
2022-12-31T17:34:21.951Z,100153.59
2022-12-31T17:37:18.315Z,100151.38
2022-12-31T17:39:49.443Z,100148.50
2022-12-31T17:42:36.593Z,100132.56
2022-12-31T17:45:21.683Z,100142.72
2022-12-31T17:47:52.296Z,100136.28
2022-12-31T17:50:22.654Z,100130.84
2022-12-31T17:52:49.957Z,100113.16
2022-12-31T17:55:17.288Z,100112.34
2022-12-31T17:57:54.298Z,100114.53
2022-12-31T18:00:25.877Z,100105.69
2022-12-31T18:02:53.093Z,100102.16
2022-12-31T18:05:23.648Z,100096.19
2022-12-31T18:07:50.836Z,100091.97
2022-12-31T18:10:21.048Z,100102.28
2022-12-31T18:12:49.351Z,100096.84
2022-12-31T18:15:20.634Z,100101.25
2022-12-31T18:17:48.277Z,100093.97
2022-12-31T18:20:15.543Z,100094.69
2022-12-31T18:22:45.051Z,100096.34
2022-12-31T18:25:18.901Z,100112.63
2022-12-31T18:27:45.865Z,100107.38
2022-12-31T18:30:13.647Z,100106.19
2022-12-31T18:32:41.731Z,100108.75
2022-12-31T18:35:57.721Z,100100.94
2022-12-31T18:38:14.038Z,100110.28
2022-12-31T18:40:44.359Z,100117.22
2022-12-31T18:43:19.800Z,100098.06
2022-12-31T18:45:47.853Z,100096.72
2022-12-31T18:48:15.594Z,100102.31
2022-12-31T18:50:43.009Z,100103.88
2022-12-31T18:53:22.391Z,100104.38
2022-12-31T18:55:58.531Z,100103.19
2022-12-31T18:58:25.436Z,100107.44
2022-12-31T19:00:52.726Z,100112.56
2022-12-31T19:03:23.129Z,100098.63
2022-12-31T19:05:51.328Z,100115.31
2022-12-31T19:08:20.275Z,100122.09
2022-12-31T19:10:49.805Z,100118.72
2022-12-31T19:13:19.146Z,100123.13
2022-12-31T19:15:52.432Z,100114.31
2022-12-31T19:18:19.804Z,100105.66
2022-12-31T19:20:47.070Z,100110.03
2022-12-31T19:23:18.047Z,100105.81
2022-12-31T19:25:46.620Z,100092.09
2022-12-31T19:28:26.272Z,100097.66
2022-12-31T19:30:53.975Z,100110.75
2022-12-31T19:33:21.221Z,100122.13
2022-12-31T19:35:48.227Z,100101.06
2022-12-31T19:38:26.313Z,100112.63
2022-12-31T19:40:53.971Z,100108.03
2022-12-31T19:43:23.340Z,100137.91
2022-12-31T19:45:51.843Z,100126.34
2022-12-31T19:48:32.074Z,100119.25
2022-12-31T19:51:00.320Z,100113.81
2022-12-31T19:53:30.088Z,100110.59
2022-12-31T19:55:56.980Z,100119.91
2022-12-31T19:58:26.232Z,100119.25
2022-12-31T20:01:01.722Z,100115.66
2022-12-31T20:03:29.897Z,100127.53
2022-12-31T20:06:09.156Z,100144.34
2022-12-31T20:08:38.511Z,100131.47
2022-12-31T20:11:13.666Z,100138.44
2022-12-31T20:13:42.025Z,100135.56
2022-12-31T20:16:12.844Z,100140.31
2022-12-31T20:18:41.740Z,100147.75
2022-12-31T20:21:17.728Z,100156.09
2022-12-31T20:23:45.113Z,100146.75
2022-12-31T20:26:12.490Z,100155.59
2022-12-31T20:28:39.888Z,100156.59
2022-12-31T20:31:10.138Z,100141.66
2022-12-31T20:33:37.303Z,100163.25
2022-12-31T20:36:06.741Z,100161.88
2022-12-31T20:38:33.831Z,100159.34
2022-12-31T20:41:05.411Z,100171.91
2022-12-31T20:43:34.071Z,100172.91
2022-12-31T20:46:18.814Z,100170.19
2022-12-31T20:48:48.188Z,100168.19
2022-12-31T20:51:17.216Z,100175.97
2022-12-31T20:53:55.393Z,100174.59
2022-12-31T20:56:24.335Z,100167.47
2022-12-31T20:58:51.507Z,100180.03
2022-12-31T21:01:19.293Z,100188.34
2022-12-31T21:04:05.881Z,100166.47
2022-12-31T21:06:36.423Z,100162.34
2022-12-31T21:09:06.818Z,100191.59
2022-12-31T21:11:53.550Z,100183.78
2022-12-31T21:14:20.562Z,100188.03
2022-12-31T21:16:47.684Z,100182.78
2022-12-31T21:19:14.831Z,100193.78
2022-12-31T21:21:44.492Z,100185.66
2022-12-31T21:24:11.715Z,100185.50
2022-12-31T21:26:38.669Z,100198.75
2022-12-31T21:29:05.727Z,100183.31
2022-12-31T21:31:32.687Z,100184.31
2022-12-31T21:33:59.666Z,100189.75
2022-12-31T21:36:26.749Z,100188.56
2022-12-31T21:38:53.760Z,100192.47
2022-12-31T21:41:39.521Z,100198.09
2022-12-31T21:44:06.467Z,100208.59
2022-12-31T21:46:33.507Z,100199.25
2022-12-31T21:49:00.906Z,100205.38
2022-12-31T21:51:29.819Z,100204.16
2022-12-31T21:53:57.077Z,100204.66
2022-12-31T21:56:24.551Z,100209.06
2022-12-31T21:59:16.650Z,100209.25
2022-12-31T22:02:03.232Z,100214.69
2022-12-31T22:07:17.818Z,100210.78
2022-12-31T22:09:44.907Z,100227.09
2022-12-31T22:12:11.867Z,100217.75
2022-12-31T22:14:38.804Z,100224.03
2022-12-31T22:17:05.786Z,100225.06
2022-12-31T22:19:39.277Z,100217.91
2022-12-31T22:22:19.689Z,100219.94
2022-12-31T22:24:46.621Z,100224.22
2022-12-31T22:27:28.338Z,100233.72
2022-12-31T22:29:56.571Z,100233.03
2022-12-31T22:32:23.592Z,100237.28
2022-12-31T22:34:50.490Z,100238.50
2022-12-31T22:37:46.376Z,100244.09
2022-12-31T22:40:09.462Z,100254.13
2022-12-31T22:42:36.925Z,100251.56
2022-12-31T22:45:06.145Z,100246.47
2022-12-31T22:47:33.355Z,100243.91
2022-12-31T22:50:00.313Z,100251.41
2022-12-31T22:52:28.812Z,100242.56
2022-12-31T22:54:55.696Z,100268.22
2022-12-31T22:57:22.638Z,100261.72
2022-12-31T22:59:51.234Z,100280.94
2022-12-31T23:02:18.280Z,100282.81
2022-12-31T23:04:45.211Z,100272.78
2022-12-31T23:07:12.689Z,100278.59
2022-12-31T23:09:57.960Z,100278.59
2022-12-31T23:12:24.990Z,100257.16
2022-12-31T23:15:10.961Z,100265.31
2022-12-31T23:17:56.645Z,100268.72
2022-12-31T23:20:43.805Z,100276.88
2022-12-31T23:23:16.025Z,100271.59
2022-12-31T23:25:51.592Z,100274.50
2022-12-31T23:28:24.813Z,100287.75
2022-12-31T23:30:52.272Z,100277.72
2022-12-31T23:33:23.090Z,100281.13
2022-12-31T23:35:50.639Z,100278.25
2022-12-31T23:38:18.463Z,100282.34
2022-12-31T23:40:45.764Z,100270.28
2022-12-31T23:43:21.093Z,100279.78
2022-12-31T23:45:52.723Z,100282.69
2022-12-31T23:48:19.798Z,100284.91
2022-12-31T23:50:53.496Z,100275.75
2022-12-31T23:53:24.633Z,100268.28
2022-12-31T23:55:52.756Z,100278.78
2022-12-31T23:58:21.260Z,100278.66
